Time;durP1;ratioP1;P1;durP2;ratioP2;P2;SDS_P1;SDS_P2;PMS_P1;PMS_P2;Temp;Humidity;BMP_temperature;BMP_pressure;BME280_temperature;BME280_humidity;BME280_pressure;Samples;Min_cycle;Max_cycle;Signal;HPM_P1;HPM_P2
2023/02/01 00:01:17;;;;;;;;;;;;;;;2.79;100.00;97444.97;5017249;28;19936;-67
2023/02/01 00:03:42;;;;;;;;;;;;;;;2.84;100.00;97439.44;5021665;28;19921;-67
2023/02/01 00:06:08;;;;;;;;;;;;;;;2.83;100.00;97440.56;5017938;28;19917;-67
2023/02/01 00:08:34;;;;;;;;;;;;;;;2.89;100.00;97451.28;5022110;28;19917;-68
2023/02/01 00:11:10;;;;;;;;;;;;;;;2.77;100.00;97443.66;5022900;28;19921;-67
2023/02/01 00:13:39;;;;;;;;;;;;;;;2.79;100.00;97442.28;5021479;28;20374;-68
2023/02/01 00:16:05;;;;;;;;;;;;;;;2.81;100.00;97445.47;5015077;28;20329;-68
2023/02/01 00:18:30;;;;;;;;;;;;;;;2.77;100.00;97435.53;5022914;28;19917;-67
2023/02/01 00:20:55;;;;;;;;;;;;;;;2.74;100.00;97439.66;5037323;28;19917;-69
2023/02/01 00:23:21;;;;;;;;;;;;;;;2.77;100.00;97439.03;5016872;28;20289;-68
2023/02/01 00:25:46;;;;;;;;;;;;;;;2.79;100.00;97439.56;5020186;28;19917;-68
2023/02/01 00:28:12;;;;;;;;;;;;;;;2.79;100.00;97430.63;5017670;28;20422;-68
2023/02/01 00:30:38;;;;;;;;;;;;;;;2.77;100.00;97432.81;5019280;28;19935;-67
2023/02/01 00:33:03;;;;;;;;;;;;;;;2.83;100.00;97426.25;5019390;28;20008;-66
2023/02/01 00:35:29;;;;;;;;;;;;;;;2.84;100.00;97430.53;5035149;28;19972;-65
2023/02/01 00:37:54;;;;;;;;;;;;;;;2.83;100.00;97434.34;5021953;28;19931;-68
2023/02/01 00:40:19;;;;;;;;;;;;;;;2.81;100.00;97423.00;5017278;28;19917;-69
2023/02/01 00:42:45;;;;;;;;;;;;;;;2.80;100.00;97418.72;5031343;28;19917;-69
2023/02/01 00:45:10;;;;;;;;;;;;;;;2.81;100.00;97417.59;5031864;28;19917;-68
2023/02/01 00:47:35;;;;;;;;;;;;;;;2.92;100.00;97420.91;5024712;28;20394;-68
2023/02/01 00:50:01;;;;;;;;;;;;;;;2.86;100.00;97421.03;5025356;28;20064;-68
2023/02/01 00:52:26;;;;;;;;;;;;;;;2.90;100.00;97418.53;5020916;28;19917;-68
2023/02/01 00:54:51;;;;;;;;;;;;;;;2.83;100.00;97410.00;5025083;28;19917;-68
2023/02/01 00:57:17;;;;;;;;;;;;;;;2.85;100.00;97426.75;5035497;28;19921;-68
2023/02/01 00:59:42;;;;;;;;;;;;;;;2.84;100.00;97412.38;5024874;28;19917;-67
2023/02/01 01:02:07;;;;;;;;;;;;;;;2.86;100.00;97412.09;5015916;28;19922;-66
2023/02/01 01:04:32;;;;;;;;;;;;;;;2.79;100.00;97406.28;5023530;28;19921;-69
2023/02/01 01:06:58;;;;;;;;;;;;;;;2.80;100.00;97405.19;5023768;28;19916;-66
2023/02/01 01:09:23;;;;;;;;;;;;;;;2.89;100.00;97411.50;5020006;28;20385;-68
2023/02/01 01:11:50;;;;;;;;;;;;;;;2.85;100.00;97418.63;5024083;28;19921;-68
2023/02/01 01:14:16;;;;;;;;;;;;;;;2.83;100.00;97420.84;5019894;28;19964;-67
2023/02/01 01:16:41;;;;;;;;;;;;;;;2.87;100.00;97416.41;5024301;28;19960;-68
2023/02/01 01:19:07;;;;;;;;;;;;;;;2.90;100.00;97415.84;5020573;28;20426;-65
2023/02/01 01:21:32;;;;;;;;;;;;;;;2.85;100.00;97414.00;5024024;28;19917;-68
2023/02/01 01:23:57;;;;;;;;;;;;;;;2.89;99.75;97406.09;5024328;28;19921;-67
2023/02/01 01:26:25;;;;;;;;;;;;;;;2.85;99.61;97422.13;5025391;28;20187;-67
2023/02/01 01:28:50;;;;;;;;;;;;;;;3.01;98.76;97416.44;5041163;28;19932;-67
2023/02/01 01:31:17;;;;;;;;;;;;;;;2.93;98.22;97407.09;5047071;28;19925;-67
2023/02/01 01:33:43;;;;;;;;;;;;;;;2.91;98.44;97411.22;5032067;28;19917;-67
2023/02/01 01:36:12;;;;;;;;;;;;;;;2.82;98.12;97401.06;5021802;28;19925;-67
2023/02/01 01:38:40;;;;;;;;;;;;;;;2.89;98.58;97403.38;5025240;28;19925;-67
2023/02/01 01:41:06;;;;;;;;;;;;;;;2.81;98.39;97407.59;5018938;28;19928;-67
2023/02/01 01:43:48;;;;;;;;;;;;;;;2.82;99.46;97402.97;5023596;28;19921;-66
2023/02/01 01:46:17;;;;;;;;;;;;;;;2.79;98.30;97404.41;5019822;28;19921;-66
2023/02/01 01:48:42;;;;;;;;;;;;;;;2.81;98.20;97402.19;5022852;28;19921;-67
2023/02/01 01:51:10;;;;;;;;;;;;;;;2.84;98.33;97392.66;5018354;28;20272;-68
2023/02/01 01:53:38;;;;;;;;;;;;;;;2.86;97.76;97395.88;5024174;28;19923;-68
2023/02/01 01:56:04;;;;;;;;;;;;;;;2.78;98.31;97385.75;5019839;28;19917;-67
2023/02/01 01:58:31;;;;;;;;;;;;;;;2.82;97.15;97392.16;5023108;28;19924;-68
2023/02/01 02:00:57;;;;;;;;;;;;;;;2.83;97.70;97378.34;5038266;28;20405;-68
2023/02/01 02:03:25;;;;;;;;;;;;;;;2.80;97.83;97386.25;5021204;28;19929;-67
2023/02/01 02:05:52;;;;;;;;;;;;;;;2.79;97.35;97373.81;5029620;28;19917;-68
2023/02/01 02:08:20;;;;;;;;;;;;;;;2.78;97.55;97369.50;5025246;28;19931;-68
2023/02/01 02:10:59;;;;;;;;;;;;;;;2.77;97.82;97362.50;5023040;28;19976;-69
2023/02/01 02:13:32;;;;;;;;;;;;;;;2.80;97.40;97362.69;5019228;28;19974;-67
2023/02/01 02:16:04;;;;;;;;;;;;;;;2.85;97.25;97353.69;5023254;28;19986;-68
2023/02/01 02:18:43;;;;;;;;;;;;;;;2.81;97.48;97358.06;5053819;28;19917;-68
2023/02/01 02:21:12;;;;;;;;;;;;;;;2.79;97.62;97357.56;5018767;28;19917;-68
2023/02/01 02:23:47;;;;;;;;;;;;;;;2.82;98.12;97367.81;5023999;28;19967;-67
2023/02/01 02:26:18;;;;;;;;;;;;;;;2.89;96.75;97362.00;5018605;28;19917;-68
2023/02/01 02:28:49;;;;;;;;;;;;;;;2.79;97.69;97369.22;5023441;28;20301;-66
2023/02/01 02:31:34;;;;;;;;;;;;;;;2.83;96.90;97372.94;5018413;28;20012;-68
2023/02/01 02:34:03;;;;;;;;;;;;;;;2.84;97.25;97362.91;5026010;28;19917;-69
2023/02/01 02:36:30;;;;;;;;;;;;;;;2.78;97.73;97364.09;5055970;28;19992;-69
2023/02/01 02:39:05;;;;;;;;;;;;;;;2.81;97.83;97371.59;5028698;28;19924;-68
2023/02/01 02:47:42;;;;;;;;;;;;;;;2.73;98.14;97365.00;5023271;28;19923;-69
2023/02/01 02:55:49;;;;;;;;;;;;;;;2.66;96.35;97351.84;5022322;28;19949;-69
2023/02/01 03:06:28;;;;;;;;;;;;;;;2.62;96.91;97353.56;5020667;28;19924;-69
2023/02/01 03:08:56;;;;;;;;;;;;;;;2.63;96.84;97365.19;5022555;28;19921;-69
2023/02/01 03:11:23;;;;;;;;;;;;;;;2.72;95.99;97358.00;5020890;28;19929;-70
2023/02/01 03:13:48;;;;;;;;;;;;;;;2.79;95.56;97355.69;5029357;28;19928;-69
2023/02/01 03:16:13;;;;;;;;;;;;;;;2.80;94.92;97362.69;5022668;28;20366;-69
2023/02/01 03:18:45;;;;;;;;;;;;;;;2.61;96.22;97362.78;5027152;28;20359;-69
2023/02/01 03:21:15;;;;;;;;;;;;;;;2.62;95.75;97366.28;5021386;28;19917;-70
2023/02/01 03:23:42;;;;;;;;;;;;;;;2.68;96.29;97367.78;5027022;28;19921;-69
2023/02/01 03:26:11;;;;;;;;;;;;;;;2.75;96.35;97379.00;5022810;28;19925;-69
2023/02/01 03:28:39;;;;;;;;;;;;;;;2.67;96.49;97369.69;5025444;28;19921;-69
2023/02/01 03:31:04;;;;;;;;;;;;;;;2.73;95.71;97364.19;5018716;28;19921;-69
2023/02/01 03:33:30;;;;;;;;;;;;;;;2.72;96.70;97370.69;5023244;28;20278;-69
2023/02/01 03:35:56;;;;;;;;;;;;;;;2.76;95.27;97358.19;5040077;28;19917;-69
2023/02/01 03:38:27;;;;;;;;;;;;;;;2.73;95.80;97356.88;5021125;28;20398;-69
2023/02/01 03:40:57;;;;;;;;;;;;;;;2.70;95.96;97352.06;5025666;28;19917;-68
2023/02/01 03:43:24;;;;;;;;;;;;;;;2.77;94.86;97357.88;5023279;28;20071;-69
2023/02/01 03:45:52;;;;;;;;;;;;;;;2.74;95.34;97357.66;5023705;28;19924;-69
2023/02/01 03:48:18;;;;;;;;;;;;;;;2.72;95.22;97360.69;5016991;28;20378;-69
2023/02/01 03:50:46;;;;;;;;;;;;;;;2.68;95.97;97355.09;5053749;28;19921;-69
2023/02/01 03:53:14;;;;;;;;;;;;;;;2.71;95.70;97347.47;5015926;28;19917;-69
2023/02/01 03:55:40;;;;;;;;;;;;;;;2.94;94.18;97345.69;5037747;28;19918;-69
2023/02/01 03:58:07;;;;;;;;;;;;;;;2.82;94.72;97346.97;5036051;28;19917;-69
2023/02/01 04:00:33;;;;;;;;;;;;;;;2.80;94.68;97349.16;5037354;28;19927;-69
2023/02/01 04:02:58;;;;;;;;;;;;;;;2.80;95.35;97353.78;5030954;28;20008;-69
2023/02/01 04:05:23;;;;;;;;;;;;;;;2.69;95.62;97358.59;5019277;28;20239;-69
2023/02/01 04:07:49;;;;;;;;;;;;;;;2.61;96.02;97372.78;5024231;28;19924;-69
2023/02/01 04:10:14;;;;;;;;;;;;;;;2.68;96.06;97374.03;5019456;28;19940;-69
2023/02/01 04:12:40;;;;;;;;;;;;;;;2.65;96.44;97374.59;5054403;28;19917;-68
2023/02/01 04:15:06;;;;;;;;;;;;;;;2.86;95.86;97383.16;5015689;28;19959;-68
2023/02/01 04:17:31;;;;;;;;;;;;;;;2.99;94.75;97380.72;5020564;28;20367;-67
2023/02/01 04:19:57;;;;;;;;;;;;;;;3.01;94.28;97386.69;5023918;28;19928;-68
2023/02/01 04:22:22;;;;;;;;;;;;;;;2.97;94.33;97385.66;5020940;28;19932;-68
2023/02/01 04:24:48;;;;;;;;;;;;;;;2.95;95.05;97394.06;5025660;28;19921;-68
2023/02/01 04:27:13;;;;;;;;;;;;;;;2.93;95.50;97388.16;5019486;28;19990;-67
2023/02/01 04:29:39;;;;;;;;;;;;;;;2.99;95.13;97386.97;5025267;28;20010;-67
2023/02/01 04:32:04;;;;;;;;;;;;;;;2.97;95.12;97401.88;5020830;28;19925;-67
2023/02/01 04:34:29;;;;;;;;;;;;;;;2.95;94.15;97407.59;5025510;28;19917;-67
2023/02/01 04:36:55;;;;;;;;;;;;;;;2.92;94.41;97408.22;5023006;28;19978;-67
2023/02/01 04:39:20;;;;;;;;;;;;;;;2.82;95.25;97417.31;5022122;28;19921;-67
2023/02/01 04:41:45;;;;;;;;;;;;;;;2.98;94.82;97417.81;5025570;28;19917;-67
2023/02/01 04:44:13;;;;;;;;;;;;;;;3.03;94.42;97416.94;5021437;28;19917;-67
2023/02/01 04:46:39;;;;;;;;;;;;;;;2.89;94.72;97430.44;5056892;28;19960;-67
2023/02/01 04:49:04;;;;;;;;;;;;;;;2.89;95.32;97430.44;5021234;28;20014;-67
2023/02/01 04:51:30;;;;;;;;;;;;;;;3.02;95.18;97423.44;5024503;28;20535;-67
2023/02/01 04:53:55;;;;;;;;;;;;;;;3.00;94.60;97426.44;5056287;28;19921;-67
2023/02/01 04:56:21;;;;;;;;;;;;;;;2.73;96.32;97426.41;5020398;28;19921;-67
2023/02/01 04:58:46;;;;;;;;;;;;;;;2.71;96.93;97426.72;5024842;28;20007;-67
2023/02/01 05:01:11;;;;;;;;;;;;;;;2.63;97.99;97422.78;5020070;28;19956;-67
2023/02/01 05:03:36;;;;;;;;;;;;;;;2.43;99.27;97412.31;5023003;28;19918;-68
2023/02/01 05:06:03;;;;;;;;;;;;;;;2.34;99.55;97408.69;5054576;28;19960;-67
2023/02/01 05:08:29;;;;;;;;;;;;;;;2.40;100.00;97404.81;5025039;28;19936;-68
2023/02/01 05:10:54;;;;;;;;;;;;;;;2.37;100.00;97399.97;5023635;28;20311;-67
2023/02/01 05:16:04;;;;;;;;;;;;;;;2.33;100.00;97380.06;5035723;28;19917;-66
2023/02/01 05:18:29;;;;;;;;;;;;;;;2.21;100.00;97384.00;5033541;28;19917;-69
2023/02/01 05:20:54;;;;;;;;;;;;;;;2.23;100.00;97381.00;5025041;28;19917;-69
2023/02/01 05:23:20;;;;;;;;;;;;;;;2.31;100.00;97374.94;5020478;28;19917;-69
2023/02/01 05:25:45;;;;;;;;;;;;;;;2.44;100.00;97365.25;5023584;28;19959;-70
2023/02/01 05:28:10;;;;;;;;;;;;;;;2.23;100.00;97352.09;5020281;28;19924;-69
2023/02/01 05:30:36;;;;;;;;;;;;;;;2.22;100.00;97358.59;5022595;28;20007;-68
2023/02/01 05:33:02;;;;;;;;;;;;;;;2.24;100.00;97361.78;5023332;28;20732;-66
2023/02/01 05:35:27;;;;;;;;;;;;;;;2.24;100.00;97369.09;5021374;28;20413;-70
2023/02/01 05:37:52;;;;;;;;;;;;;;;2.29;100.00;97372.53;5023776;28;20028;-69
2023/02/01 05:40:18;;;;;;;;;;;;;;;2.34;100.00;97374.34;5019248;28;19921;-69
2023/02/01 05:42:43;;;;;;;;;;;;;;;2.33;100.00;97386.25;5024337;28;19920;-69
2023/02/01 05:45:08;;;;;;;;;;;;;;;2.33;100.00;97402.47;5020067;28;19924;-69
2023/02/01 05:47:34;;;;;;;;;;;;;;;2.35;100.00;97413.00;5023931;28;20102;-69
2023/02/01 05:49:59;;;;;;;;;;;;;;;2.41;99.69;97419.91;5024759;28;19917;-69
2023/02/01 05:52:24;;;;;;;;;;;;;;;2.32;100.00;97413.56;5019483;28;19925;-68
2023/02/01 05:54:50;;;;;;;;;;;;;;;2.35;100.00;97416.50;5022975;28;19923;-68
2023/02/01 05:57:15;;;;;;;;;;;;;;;2.39;100.00;97411.31;5018119;28;20287;-69
2023/02/01 05:59:41;;;;;;;;;;;;;;;2.28;100.00;97411.47;5023172;28;19917;-68
2023/02/01 06:02:09;;;;;;;;;;;;;;;2.31;99.78;97404.69;5017734;28;20322;-69
2023/02/01 06:04:35;;;;;;;;;;;;;;;2.40;99.64;97394.78;5023580;28;19921;-67
2023/02/01 06:07:00;;;;;;;;;;;;;;;2.39;99.44;97385.06;5026007;28;19990;-68
2023/02/01 06:09:25;;;;;;;;;;;;;;;2.36;99.63;97384.84;5018706;28;19956;-68
2023/02/01 06:11:51;;;;;;;;;;;;;;;2.40;99.50;97407.50;5024226;28;20408;-69
2023/02/01 06:14:16;;;;;;;;;;;;;;;2.32;99.86;97403.56;5059494;28;19921;-70
2023/02/01 06:16:42;;;;;;;;;;;;;;;2.36;100.00;97401.06;5032881;28;19921;-67
2023/02/01 06:19:08;;;;;;;;;;;;;;;2.35;100.00;97408.38;5041913;28;20340;-66
2023/02/01 06:21:35;;;;;;;;;;;;;;;2.39;100.00;97403.97;5024737;28;19917;-71
2023/02/01 06:24:00;;;;;;;;;;;;;;;2.34;100.00;97409.50;5031431;28;20267;-71
2023/02/01 06:26:26;;;;;;;;;;;;;;;2.38;100.00;97421.31;5061758;28;19923;-71
2023/02/01 06:28:51;;;;;;;;;;;;;;;2.50;100.00;97423.53;5028191;28;19921;-70
2023/02/01 06:31:16;;;;;;;;;;;;;;;2.53;100.00;97419.47;5021812;28;19936;-71
2023/02/01 06:33:42;;;;;;;;;;;;;;;2.73;98.71;97432.63;5025230;28;19940;-71
2023/02/01 06:36:09;;;;;;;;;;;;;;;2.73;98.54;97440.72;5017659;28;20018;-72
2023/02/01 06:38:35;;;;;;;;;;;;;;;2.63;98.13;97460.66;5022158;28;19917;-72
2023/02/01 06:41:00;;;;;;;;;;;;;;;2.80;98.47;97460.09;5054557;28;19924;-72
2023/02/01 06:43:26;;;;;;;;;;;;;;;2.74;98.06;97457.75;5018088;28;19923;-71
2023/02/01 06:45:51;;;;;;;;;;;;;;;2.71;98.97;97466.50;5055257;28;19921;-72
2023/02/01 06:48:17;;;;;;;;;;;;;;;2.54;99.29;97465.13;5024702;28;19920;-71
2023/02/01 06:50:42;;;;;;;;;;;;;;;2.39;100.00;97463.47;5024425;28;19921;-72
2023/02/01 06:53:07;;;;;;;;;;;;;;;2.44;100.00;97465.28;5019119;28;20016;-72
2023/02/01 06:55:33;;;;;;;;;;;;;;;2.48;100.00;97466.31;5023490;28;19917;-72
2023/02/01 06:57:58;;;;;;;;;;;;;;;2.43;100.00;97472.63;5024434;28;20267;-72
2023/02/01 07:00:23;;;;;;;;;;;;;;;2.76;100.00;97471.81;5019194;28;20724;-72
2023/02/01 07:02:49;;;;;;;;;;;;;;;2.74;99.02;97472.09;5022464;28;20004;-72
2023/02/01 07:05:15;;;;;;;;;;;;;;;2.68;99.16;97474.09;5019482;28;19971;-72
2023/02/01 07:07:40;;;;;;;;;;;;;;;2.63;99.18;97473.38;5023049;28;19917;-71
2023/02/01 07:10:06;;;;;;;;;;;;;;;2.61;99.08;97484.50;5017473;28;20004;-71
2023/02/01 07:12:31;;;;;;;;;;;;;;;2.70;98.50;97481.91;5055275;28;19921;-71
2023/02/01 07:14:56;;;;;;;;;;;;;;;2.63;98.16;97479.59;5024248;28;19924;-70
2023/02/01 07:17:22;;;;;;;;;;;;;;;2.72;98.58;97477.00;5035752;28;20269;-72
2023/02/01 07:19:47;;;;;;;;;;;;;;;2.68;97.65;97465.16;5040233;28;19925;-72
2023/02/01 07:22:15;;;;;;;;;;;;;;;2.64;98.80;97459.53;5018147;28;19944;-71
2023/02/01 07:24:40;;;;;;;;;;;;;;;2.58;98.39;97470.75;5023715;28;19945;-72
2023/02/01 07:27:06;;;;;;;;;;;;;;;2.62;98.89;97474.47;5032354;28;19928;-70
2023/02/01 07:29:31;;;;;;;;;;;;;;;2.49;99.38;97471.41;5033511;28;20521;-72
2023/02/01 07:31:56;;;;;;;;;;;;;;;2.41;99.60;97469.41;5022011;28;19921;-71
2023/02/01 07:34:22;;;;;;;;;;;;;;;2.52;99.85;97470.03;5017687;28;19959;-72
2023/02/01 07:36:47;;;;;;;;;;;;;;;2.67;98.69;97475.19;5021950;28;20004;-73
2023/02/01 07:39:12;;;;;;;;;;;;;;;2.60;98.80;97465.84;5018515;28;19923;-72
2023/02/01 07:41:38;;;;;;;;;;;;;;;2.63;99.85;97465.28;5031350;28;19917;-72
2023/02/01 07:44:03;;;;;;;;;;;;;;;2.63;99.85;97465.28;5043185;28;19921;-71
2023/02/01 07:46:28;;;;;;;;;;;;;;;2.53;100.00;97465.44;5026781;28;20332;-70
2023/02/01 07:48:54;;;;;;;;;;;;;;;2.52;100.00;97471.94;5027731;28;19939;-73
2023/02/01 07:51:19;;;;;;;;;;;;;;;2.59;100.00;97469.66;5022754;28;19925;-70
2023/02/01 07:53:44;;;;;;;;;;;;;;;2.64;99.82;97469.56;5030810;28;20380;-71
2023/02/01 07:56:11;;;;;;;;;;;;;;;2.69;99.70;97483.00;5057588;28;19921;-71
2023/02/01 07:58:37;;;;;;;;;;;;;;;2.49;100.00;97468.72;5029686;28;19917;-72
2023/02/01 08:01:21;;;;;;;;;;;;;;;2.47;100.00;97467.41;5046056;28;19971;-70
2023/02/01 08:03:51;;;;;;;;;;;;;;;2.54;100.00;97467.03;5065771;28;19924;-72
2023/02/01 08:06:16;;;;;;;;;;;;;;;2.60;100.00;97445.00;5026893;28;19927;-72
2023/02/01 08:08:44;;;;;;;;;;;;;;;2.45;100.00;97429.84;5033801;28;20000;-70
2023/02/01 08:11:10;;;;;;;;;;;;;;;2.38;100.00;97432.13;5027163;28;20039;-71
2023/02/01 08:13:36;;;;;;;;;;;;;;;2.42;100.00;97432.34;5048253;28;19921;-70
2023/02/01 08:16:03;;;;;;;;;;;;;;;2.45;100.00;97456.91;5031246;28;20017;-71
2023/02/01 08:18:28;;;;;;;;;;;;;;;2.42;100.00;97454.78;5045502;28;19928;-70
2023/02/01 08:20:54;;;;;;;;;;;;;;;2.33;100.00;97453.84;5031329;28;19917;-70
2023/02/01 08:23:20;;;;;;;;;;;;;;;2.37;100.00;97470.28;5028436;28;19932;-72
2023/02/01 08:25:46;;;;;;;;;;;;;;;2.37;100.00;97467.56;5031354;28;19917;-72
2023/02/01 08:28:11;;;;;;;;;;;;;;;2.35;100.00;97462.44;5060312;28;19996;-71
2023/02/01 08:30:38;;;;;;;;;;;;;;;2.47;100.00;97467.41;5033557;28;20401;-71
2023/02/01 08:33:05;;;;;;;;;;;;;;;2.55;100.00;97463.22;5028492;28;19966;-72
2023/02/01 08:35:31;;;;;;;;;;;;;;;2.49;100.00;97459.81;5033348;28;20016;-74
2023/02/01 08:37:56;;;;;;;;;;;;;;;2.63;100.00;97474.19;5031542;28;19929;-72
2023/02/01 08:40:21;;;;;;;;;;;;;;;2.78;100.00;97466.91;5026985;28;20296;-71
2023/02/01 08:42:53;;;;;;;;;;;;;;;2.66;100.00;97468.16;5033557;28;20034;-71
2023/02/01 08:45:23;;;;;;;;;;;;;;;2.82;100.00;97482.22;5044081;28;20394;-72
2023/02/01 08:47:50;;;;;;;;;;;;;;;2.70;100.00;97465.66;5015818;28;20014;-72
2023/02/01 08:50:16;;;;;;;;;;;;;;;2.71;100.00;97483.50;5061186;28;19932;-71
2023/02/01 08:52:41;;;;;;;;;;;;;;;2.84;100.00;97485.44;5070948;28;19921;-72
2023/02/01 08:55:07;;;;;;;;;;;;;;;2.82;100.00;97476.81;5034502;28;19921;-72
2023/02/01 08:57:33;;;;;;;;;;;;;;;2.94;100.00;97476.38;5040236;28;19917;-70
2023/02/01 08:59:59;;;;;;;;;;;;;;;2.91;100.00;97476.16;5018376;28;19991;-71
2023/02/01 09:02:24;;;;;;;;;;;;;;;3.01;100.00;97478.69;5027740;28;20396;-71
2023/02/01 09:04:50;;;;;;;;;;;;;;;2.95;100.00;97472.53;5030067;28;19917;-71
2023/02/01 09:07:16;;;;;;;;;;;;;;;2.97;100.00;97485.78;5026196;28;19984;-71
2023/02/01 09:09:42;;;;;;;;;;;;;;;2.85;100.00;97489.75;5031747;28;19964;-70
2023/02/01 09:12:07;;;;;;;;;;;;;;;2.99;100.00;97502.50;5057960;28;20413;-70
2023/02/01 09:14:33;;;;;;;;;;;;;;;3.11;100.00;97504.75;5031796;28;19940;-70
2023/02/01 09:16:58;;;;;;;;;;;;;;;3.09;100.00;97499.63;5014557;28;19924;-70
2023/02/01 09:19:23;;;;;;;;;;;;;;;3.08;100.00;97508.03;5043306;28;20157;-70
2023/02/01 09:21:49;;;;;;;;;;;;;;;2.98;100.00;97501.72;5063667;28;19921;-72
2023/02/01 09:24:14;;;;;;;;;;;;;;;3.04;100.00;97497.84;5042364;28;19921;-71
2023/02/01 09:26:39;;;;;;;;;;;;;;;3.03;100.00;97498.13;5031533;28;20290;-73
2023/02/01 09:29:09;;;;;;;;;;;;;;;3.10;100.00;97493.13;5028107;28;19967;-73
2023/02/01 09:31:35;;;;;;;;;;;;;;;3.14;100.00;97479.81;5063666;28;19928;-72
2023/02/01 09:34:00;;;;;;;;;;;;;;;3.11;100.00;97483.91;5047418;28;19980;-72
2023/02/01 09:36:26;;;;;;;;;;;;;;;3.07;100.00;97482.91;5026962;28;19924;-72
2023/02/01 09:38:52;;;;;;;;;;;;;;;3.18;100.00;97489.72;5030375;28;19917;-73
2023/02/01 09:41:30;;;;;;;;;;;;;;;3.14;100.00;97490.63;5058500;28;20284;-72
2023/02/01 09:44:14;;;;;;;;;;;;;;;3.13;100.00;97492.50;5076827;28;19924;-71
2023/02/01 09:46:39;;;;;;;;;;;;;;;3.16;100.00;97485.72;5050565;28;19940;-70
2023/02/01 09:49:10;;;;;;;;;;;;;;;3.17;100.00;97490.84;5027414;28;20394;-70
2023/02/01 09:51:37;;;;;;;;;;;;;;;3.15;100.00;97498.47;5031192;28;20306;-71
2023/02/01 09:54:06;;;;;;;;;;;;;;;3.21;100.00;97505.38;5027981;28;20267;-71
2023/02/01 09:56:55;;;;;;;;;;;;;;;3.24;100.00;97498.53;5046309;28;19921;-71
2023/02/01 09:59:23;;;;;;;;;;;;;;;3.28;100.00;97501.47;5020977;28;19921;-73
2023/02/01 10:01:48;;;;;;;;;;;;;;;3.44;100.00;97503.59;5031043;28;19925;-72
2023/02/01 10:04:16;;;;;;;;;;;;;;;3.48;100.00;97498.38;5027380;28;19940;-71
2023/02/01 10:06:47;;;;;;;;;;;;;;;3.60;100.00;97504.09;5030017;28;19924;-72
2023/02/01 10:09:15;;;;;;;;;;;;;;;3.52;100.00;97507.50;5057858;28;19944;-71
2023/02/01 10:11:50;;;;;;;;;;;;;;;3.64;100.00;97507.00;5062625;28;19990;-70
2023/02/01 10:14:18;;;;;;;;;;;;;;;3.72;100.00;97505.50;5026396;28;19918;-72
2023/02/01 10:17:07;;;;;;;;;;;;;;;3.64;100.00;97505.09;5030023;28;19918;-71
2023/02/01 10:19:45;;;;;;;;;;;;;;;3.66;100.00;97482.34;5035737;28;19921;-72
2023/02/01 10:22:15;;;;;;;;;;;;;;;3.72;100.00;97478.41;5062937;28;19917;-72
2023/02/01 10:24:42;;;;;;;;;;;;;;;3.70;100.00;97475.19;5063833;28;19925;-71
2023/02/01 10:27:17;;;;;;;;;;;;;;;3.78;100.00;97474.47;5032395;28;19928;-72
2023/02/01 10:29:45;;;;;;;;;;;;;;;3.84;100.00;97478.69;5041730;28;20465;-72
2023/02/01 10:32:15;;;;;;;;;;;;;;;3.91;100.00;97457.41;5033391;28;19984;-72
2023/02/01 10:35:10;;;;;;;;;;;;;;;;;;;;;
2023/02/01 10:37:41;;;;;;;;;;;;;;;4.06;100.00;97440.00;5028346;28;19917;-72
2023/02/01 10:40:17;;;;;;;;;;;;;;;3.98;100.00;97449.66;5042230;28;19957;-72
2023/02/01 10:42:43;;;;;;;;;;;;;;;4.02;100.00;97464.19;5034730;28;20020;-71
2023/02/01 10:45:17;;;;;;;;;;;;;;;4.02;99.77;97460.69;5023485;28;19960;-71
2023/02/01 10:47:42;;;;;;;;;;;;;;;4.07;100.00;97468.72;5042240;28;20351;-71
2023/02/01 10:50:09;;;;;;;;;;;;;;;4.07;100.00;97466.00;5037887;28;19956;-72
2023/02/01 10:52:34;;;;;;;;;;;;;;;4.12;99.81;97473.22;5027980;28;20071;-72
2023/02/01 10:55:20;;;;;;;;;;;;;;;4.28;98.87;97470.94;5027180;28;19971;-72
2023/02/01 10:57:54;;;;;;;;;;;;;;;4.32;97.65;97485.50;4995759;28;19917;-71
2023/02/01 11:00:21;;;;;;;;;;;;;;;4.25;97.30;97487.81;5022314;28;19922;-72
2023/02/01 11:02:46;;;;;;;;;;;;;;;4.46;97.40;97483.53;5060669;28;20004;-72
2023/02/01 11:05:12;;;;;;;;;;;;;;;4.45;96.74;97487.38;5033338;28;19918;-72
2023/02/01 11:07:38;;;;;;;;;;;;;;;4.39;96.58;97481.28;5036612;28;19917;-71
2023/02/01 11:10:04;;;;;;;;;;;;;;;4.59;96.13;97469.13;5023583;28;20424;-72
2023/02/01 11:12:34;;;;;;;;;;;;;;;4.76;95.25;97457.56;5025278;28;19928;-72
2023/02/01 11:15:20;;;;;;;;;;;;;;;4.70;93.90;97460.72;5026541;28;20263;-72
2023/02/01 11:17:47;;;;;;;;;;;;;;;4.84;93.61;97466.09;5025829;28;19936;-72
2023/02/01 11:20:17;;;;;;;;;;;;;;;5.17;91.93;97464.66;5023243;28;19984;-72
2023/02/01 11:22:54;;;;;;;;;;;;;;;5.04;90.71;97443.03;5035089;28;20011;-72
2023/02/01 11:25:19;;;;;;;;;;;;;;;5.03;91.95;97466.69;5030699;28;19975;-72
2023/02/01 11:27:45;;;;;;;;;;;;;;;5.09;91.32;97453.75;5043375;28;19944;-71
2023/02/01 11:30:17;;;;;;;;;;;;;;;4.92;91.53;97449.06;5027190;28;20096;-71
2023/02/01 11:32:42;;;;;;;;;;;;;;;4.68;92.32;97447.47;5059626;28;20375;-72
2023/02/01 11:35:11;;;;;;;;;;;;;;;4.63;92.28;97416.94;5020175;28;19921;-70
2023/02/01 11:37:38;;;;;;;;;;;;;;;4.82;90.91;97408.59;5025628;28;19997;-71
2023/02/01 11:40:23;;;;;;;;;;;;;;;5.03;89.24;97419.72;5038519;28;19918;-72
2023/02/01 11:43:08;;;;;;;;;;;;;;;5.11;88.73;97436.06;5027690;28;19947;-71
2023/02/01 11:45:34;;;;;;;;;;;;;;;4.98;89.42;97439.66;5026716;28;20366;-72
2023/02/01 11:48:00;;;;;;;;;;;;;;;4.89;89.08;97442.31;5060836;28;19987;-71
2023/02/01 11:50:32;;;;;;;;;;;;;;;5.02;89.50;97437.13;5020712;28;20260;-71
2023/02/01 11:53:16;;;;;;;;;;;;;;;5.08;88.87;97433.16;5060591;28;20006;-72
2023/02/01 11:56:00;;;;;;;;;;;;;;;5.19;88.39;97428.25;5025367;28;19939;-72
2023/02/01 11:58:28;;;;;;;;;;;;;;;5.43;87.00;97427.84;5035678;28;19921;-72
2023/02/01 12:01:12;;;;;;;;;;;;;;;5.50;87.11;97436.34;5072730;28;19940;-71
2023/02/01 12:03:44;;;;;;;;;;;;;;;5.58;84.94;97418.47;5029183;28;19925;-70
2023/02/01 12:06:28;;;;;;;;;;;;;;;5.66;85.76;97425.84;5021681;28;19924;-72
2023/02/01 12:09:02;;;;;;;;;;;;;;;5.57;85.33;97414.16;5026502;28;19922;-72
2023/02/01 12:11:30;;;;;;;;;;;;;;;5.55;85.53;97423.41;5022731;28;19921;-71
2023/02/01 12:14:02;;;;;;;;;;;;;;;5.67;85.62;97417.38;5041154;28;19917;-71
2023/02/01 12:16:46;;;;;;;;;;;;;;;6.00;83.39;97410.72;5021142;28;19950;-71
2023/02/01 12:19:33;;;;;;;;;;;;;;;6.06;83.53;97402.09;5020971;28;20427;-72
2023/02/01 12:22:02;;;;;;;;;;;;;;;6.02;83.30;97400.34;5025860;28;19943;-73
2023/02/01 12:24:46;;;;;;;;;;;;;;;5.80;83.49;97390.34;5021914;28;19962;-72
2023/02/01 12:27:26;;;;;;;;;;;;;;;6.06;82.56;97379.53;5034838;28;20298;-72
2023/02/01 12:30:10;;;;;;;;;;;;;;;6.32;81.32;97371.38;5026769;28;19917;-71
2023/02/01 12:32:41;;;;;;;;;;;;;;;6.32;79.61;97355.84;5020932;28;19921;-72
2023/02/01 12:35:37;;;;;;;;;;;;;;;6.29;80.03;97358.41;5046577;28;20465;-71
2023/02/01 12:38:18;;;;;;;;;;;;;;;6.66;79.15;97350.63;5023582;28;20393;-72
2023/02/01 12:40:43;;;;;;;;;;;;;;;6.87;77.81;97340.63;5060614;28;19921;-71
2023/02/01 12:43:27;;;;;;;;;;;;;;;6.97;77.62;97330.47;5039460;28;19970;-72
2023/02/01 12:45:58;;;;;;;;;;;;;;;7.19;75.04;97332.94;5043640;28;19917;-71
2023/02/01 12:48:42;;;;;;;;;;;;;;;7.33;72.86;97329.16;5055699;28;20270;-71
2023/02/01 12:51:17;;;;;;;;;;;;;;;7.70;72.29;97332.94;5023171;28;19929;-71
2023/02/01 12:53:45;;;;;;;;;;;;;;;7.25;73.02;97334.34;5029199;28;19960;-71
2023/02/01 12:56:30;;;;;;;;;;;;;;;6.71;74.70;97328.66;5039333;28;20015;-71
2023/02/01 12:59:00;;;;;;;;;;;;;;;6.63;74.20;97338.47;5029476;28;19921;-71
2023/02/01 13:01:44;;;;;;;;;;;;;;;6.30;74.52;97340.94;5056869;28;19927;-71
2023/02/01 13:04:11;;;;;;;;;;;;;;;5.96;76.33;97318.13;5024700;28;20008;-72
2023/02/01 13:06:43;;;;;;;;;;;;;;;5.90;77.65;97328.31;5044950;28;19925;-71
2023/02/01 13:09:17;;;;;;;;;;;;;;;5.93;77.89;97335.84;5023194;28;20343;-72
2023/02/01 13:11:44;;;;;;;;;;;;;;;5.88;78.10;97332.47;5029122;28;19921;-72
2023/02/01 13:14:25;;;;;;;;;;;;;;;5.78;79.89;97332.78;5057540;28;20008;-72
2023/02/01 13:16:52;;;;;;;;;;;;;;;5.48;80.94;97327.19;5044651;28;20370;-72
2023/02/01 13:19:17;;;;;;;;;;;;;;;5.33;82.70;97325.72;5021870;28;19964;-72
2023/02/01 13:21:45;;;;;;;;;;;;;;;5.23;84.00;97324.09;5060818;28;20402;-71